EST,Max TemperatureF,Mean TemperatureF,Min TemperatureF,Max Dew PointF,MeanDew PointF,Min DewpointF,Max Humidity, Mean Humidity, Min Humidity, Max Sea Level PressureIn, Mean Sea Level PressureIn, Min Sea Level PressureIn, Max VisibilityMiles, Mean VisibilityMiles, Min VisibilityMiles, Max Wind SpeedMPH, Mean Wind SpeedMPH, Max Gust SpeedMPH,PrecipitationIn, CloudCover, Events, WindDirDegrees
2012-11-1,52,46,39,39,38,36,86,71,59,29.61,29.58,29.56,10,10,10,12,7,18,0.00,4,,229
2012-11-2,53,48,43,39,35,31,74,61,45,29.76,29.65,29.61,10,10,10,16,8,23,0.00,8,,281
2012-11-3,52,46,41,32,30,29,67,57,46,29.94,29.84,29.76,10,10,10,22,11,31,0.00,2,,308
2012-11-4,52,44,37,32,30,29,73,60,48,29.99,29.96,29.92,10,10,10,14,8,22,0.00,2,,311
2012-11-5,46,40,34,28,23,18,58,50,39,30.19,30.06,29.98,10,10,10,13,8,20,0.00,3,,337
2012-11-6,44,36,28,23,19,15,72,51,31,30.25,30.18,30.09,10,10,10,7,2,,0.00,0,,31
2012-11-7,39,36,32,32,29,17,93,80,44,30.06,29.87,29.78,10,3,0,21,12,30,0.45,7,Fog-Rain-Snow,358
2012-11-8,48,40,33,29,24,21,82,55,36,29.92,29.80,29.74,10,9,2,18,11,31,0.02,5,Snow,332
2012-11-9,55,46,36,33,26,20,65,48,30,30.20,30.06,29.93,10,10,10,20,10,26,0.00,0,,313
2012-11-10,55,47,39,39,36,31,79,65,53,30.42,30.31,30.20,10,9,7,5,2,,0.00,3,,268
2012-11-11,64,52,39,50,44,36,89,74,52,30.49,30.45,30.41,10,9,5,9,2,21,0.00,2,Fog,174
2012-11-12,68,55,42,58,51,41,100,88,63,30.47,30.36,30.18,10,6,0,12,2,23,0.00,4,Fog,175
2012-11-13,61,50,39,58,40,28,90,75,53,30.45,30.30,30.13,10,9,3,17,9,18,0.07,7,Rain,324
2012-11-14,48,41,34,28,25,21,70,53,42,30.53,30.48,30.45,10,10,10,10,6,,0.00,1,,7
2012-11-15,46,40,35,28,25,23,67,55,39,30.47,30.39,30.31,10,10,10,7,4,,0.00,0,,18
2012-11-16,48,42,35,27,25,21,70,56,37,30.45,30.34,30.30,10,10,10,10,5,18,0.00,0,,354
2012-11-17,53,43,33,30,28,25,72,57,40,30.63,30.57,30.45,10,10,10,10,5,,0.00,0,,11
2012-11-18,48,41,34,35,32,28,79,68,52,30.67,30.62,30.57,10,10,10,8,3,,0.00,1,,36
2012-11-19,50,42,35,36,33,29,86,74,59,30.57,30.42,30.26,10,10,10,8,4,,0.00,1,,24
2012-11-20,51,42,32,35,31,27,89,67,39,30.24,30.17,30.11,10,10,10,6,4,,0.00,0,,4
2012-11-21,55,46,36,32,29,24,76,54,33,30.23,30.19,30.14,10,10,10,7,3,,0.00,0,,1
2012-11-22,55,44,33,40,34,25,93,70,51,30.27,30.21,30.13,10,10,10,7,1,,0.00,0,Fog,25
2012-11-23,55,44,32,45,39,30,97,80,53,30.12,29.90,29.68,10,9,6,10,2,,0.00,2,Fog-Rain,188
2012-11-24,48,42,34,43,21,15,83,46,38,29.85,29.75,29.67,10,10,10,22,12,34,0.00,2,,295
2012-11-25,42,38,34,22,19,13,52,47,40,29.96,29.90,29.85,10,10,10,17,12,23,0.00,3,,270
2012-11-26,48,40,33,23,20,17,64,45,29,30.25,30.10,29.96,10,10,10,14,7,22,0.00,1,,273
2012-11-27,37,35,33,34,32,22,96,87,54,30.30,30.24,30.21,10,5,0,8,4,,0.51,8,Fog-Rain-Snow,7
2012-11-28,41,36,30,32,26,21,89,68,51,30.28,30.22,30.18,10,10,10,13,5,24,0.00,3,,310
2012-11-29,44,38,32,25,23,20,64,55,43,30.36,30.31,30.27,10,10,10,13,7,,0.00,0,,243
2012-11-30,46,37,28,34,28,23,82,67,44,30.45,30.38,30.31,10,10,7,10,3,18,0.00,5,,56